sensor_id;sensor_type;location;lat;lon;timestamp;P1;durP1;ratioP1;P2;durP2;ratioP2
17398;SDS011;8817;48.170;8.592;2023-06-19T00:00:43;10.20;;;8.70;;
17398;SDS011;8817;48.170;8.592;2023-06-19T00:03:10;9.68;;;8.73;;
17398;SDS011;8817;48.170;8.592;2023-06-19T00:05:37;9.13;;;8.32;;
17398;SDS011;8817;48.170;8.592;2023-06-19T00:08:04;9.68;;;8.70;;
17398;SDS011;8817;48.170;8.592;2023-06-19T00:10:33;9.40;;;8.50;;
17398;SDS011;8817;48.170;8.592;2023-06-19T00:12:59;9.32;;;8.43;;
17398;SDS011;8817;48.170;8.592;2023-06-19T00:15:26;9.48;;;8.57;;
17398;SDS011;8817;48.170;8.592;2023-06-19T00:17:55;9.23;;;8.43;;
17398;SDS011;8817;48.170;8.592;2023-06-19T00:20:23;10.18;;;8.80;;
17398;SDS011;8817;48.170;8.592;2023-06-19T00:22:50;10.25;;;8.43;;
17398;SDS011;8817;48.170;8.592;2023-06-19T00:25:17;9.70;;;8.70;;
17398;SDS011;8817;48.170;8.592;2023-06-19T00:27:46;9.65;;;8.75;;
17398;SDS011;8817;48.170;8.592;2023-06-19T00:30:14;9.57;;;8.60;;
17398;SDS011;8817;48.170;8.592;2023-06-19T00:32:41;9.40;;;8.50;;
17398;SDS011;8817;48.170;8.592;2023-06-19T00:35:13;9.00;;;8.10;;
17398;SDS011;8817;48.170;8.592;2023-06-19T00:37:40;9.35;;;8.38;;
17398;SDS011;8817;48.170;8.592;2023-06-19T00:40:09;8.80;;;8.00;;
17398;SDS011;8817;48.170;8.592;2023-06-19T00:42:41;9.10;;;8.18;;
17398;SDS011;8817;48.170;8.592;2023-06-19T00:45:10;9.20;;;8.30;;
17398;SDS011;8817;48.170;8.592;2023-06-19T00:47:37;7.63;;;7.00;;
17398;SDS011;8817;48.170;8.592;2023-06-19T00:50:04;8.43;;;7.70;;
17398;SDS011;8817;48.170;8.592;2023-06-19T00:52:32;8.07;;;7.47;;
17398;SDS011;8817;48.170;8.592;2023-06-19T00:54:59;7.88;;;7.28;;
17398;SDS011;8817;48.170;8.592;2023-06-19T00:57:27;8.45;;;7.72;;
17398;SDS011;8817;48.170;8.592;2023-06-19T00:59:55;7.72;;;7.03;;
17398;SDS011;8817;48.170;8.592;2023-06-19T01:02:25;7.70;;;7.10;;
17398;SDS011;8817;48.170;8.592;2023-06-19T01:04:52;7.85;;;7.25;;
17398;SDS011;8817;48.170;8.592;2023-06-19T01:07:21;7.18;;;6.55;;
17398;SDS011;8817;48.170;8.592;2023-06-19T01:09:53;7.57;;;6.97;;
17398;SDS011;8817;48.170;8.592;2023-06-19T01:12:26;7.20;;;6.60;;
17398;SDS011;8817;48.170;8.592;2023-06-19T01:14:57;7.55;;;6.95;;
17398;SDS011;8817;48.170;8.592;2023-06-19T01:17:26;7.80;;;7.10;;
17398;SDS011;8817;48.170;8.592;2023-06-19T01:19:54;7.18;;;6.65;;
17398;SDS011;8817;48.170;8.592;2023-06-19T01:22:24;7.30;;;6.70;;
17398;SDS011;8817;48.170;8.592;2023-06-19T01:24:52;7.20;;;6.60;;
17398;SDS011;8817;48.170;8.592;2023-06-19T01:27:19;6.93;;;6.47;;
17398;SDS011;8817;48.170;8.592;2023-06-19T01:29:46;6.90;;;6.40;;
17398;SDS011;8817;48.170;8.592;2023-06-19T01:32:13;7.03;;;6.45;;
17398;SDS011;8817;48.170;8.592;2023-06-19T01:34:45;7.35;;;6.63;;
17398;SDS011;8817;48.170;8.592;2023-06-19T01:37:13;6.72;;;6.22;;
17398;SDS011;8817;48.170;8.592;2023-06-19T01:39:42;6.75;;;6.30;;
17398;SDS011;8817;48.170;8.592;2023-06-19T01:42:11;6.60;;;6.20;;
17398;SDS011;8817;48.170;8.592;2023-06-19T01:44:39;6.88;;;6.38;;
17398;SDS011;8817;48.170;8.592;2023-06-19T01:47:09;6.70;;;6.30;;
17398;SDS011;8817;48.170;8.592;2023-06-19T01:49:37;6.50;;;6.10;;
17398;SDS011;8817;48.170;8.592;2023-06-19T01:52:05;7.15;;;6.55;;
17398;SDS011;8817;48.170;8.592;2023-06-19T01:54:32;6.57;;;6.15;;
17398;SDS011;8817;48.170;8.592;2023-06-19T01:57:00;6.45;;;6.05;;
17398;SDS011;8817;48.170;8.592;2023-06-19T01:59:27;6.93;;;6.43;;
17398;SDS011;8817;48.170;8.592;2023-06-19T02:01:54;7.10;;;6.53;;
17398;SDS011;8817;48.170;8.592;2023-06-19T02:04:21;7.07;;;6.57;;
17398;SDS011;8817;48.170;8.592;2023-06-19T02:06:48;6.85;;;6.40;;
17398;SDS011;8817;48.170;8.592;2023-06-19T02:09:15;6.85;;;6.35;;
17398;SDS011;8817;48.170;8.592;2023-06-19T02:11:42;6.72;;;6.30;;
17398;SDS011;8817;48.170;8.592;2023-06-19T02:14:10;6.72;;;6.32;;
17398;SDS011;8817;48.170;8.592;2023-06-19T02:16:37;7.00;;;6.50;;
17398;SDS011;8817;48.170;8.592;2023-06-19T02:19:06;7.43;;;6.78;;
17398;SDS011;8817;48.170;8.592;2023-06-19T02:21:33;6.78;;;6.38;;
17398;SDS011;8817;48.170;8.592;2023-06-19T02:24:00;6.65;;;6.25;;
17398;SDS011;8817;48.170;8.592;2023-06-19T02:26:27;6.68;;;6.28;;
17398;SDS011;8817;48.170;8.592;2023-06-19T02:28:56;6.70;;;6.28;;
17398;SDS011;8817;48.170;8.592;2023-06-19T02:31:24;6.88;;;6.38;;
17398;SDS011;8817;48.170;8.592;2023-06-19T02:33:51;7.72;;;6.38;;
17398;SDS011;8817;48.170;8.592;2023-06-19T02:36:18;6.82;;;6.32;;
17398;SDS011;8817;48.170;8.592;2023-06-19T02:38:45;7.10;;;6.50;;
17398;SDS011;8817;48.170;8.592;2023-06-19T02:41:12;7.22;;;6.57;;
17398;SDS011;8817;48.170;8.592;2023-06-19T02:43:39;6.97;;;6.47;;
17398;SDS011;8817;48.170;8.592;2023-06-19T02:46:06;6.72;;;6.32;;
17398;SDS011;8817;48.170;8.592;2023-06-19T02:48:34;6.90;;;6.50;;
17398;SDS011;8817;48.170;8.592;2023-06-19T02:51:01;7.07;;;6.60;;
17398;SDS011;8817;48.170;8.592;2023-06-19T02:53:28;6.72;;;6.32;;
17398;SDS011;8817;48.170;8.592;2023-06-19T02:55:55;6.57;;;6.18;;
17398;SDS011;8817;48.170;8.592;2023-06-19T02:58:22;6.80;;;6.25;;
17398;SDS011;8817;48.170;8.592;2023-06-19T03:00:51;6.80;;;6.30;;
17398;SDS011;8817;48.170;8.592;2023-06-19T03:03:18;6.68;;;6.28;;
17398;SDS011;8817;48.170;8.592;2023-06-19T03:05:46;6.53;;;6.05;;
17398;SDS011;8817;48.170;8.592;2023-06-19T03:08:13;6.65;;;6.25;;
17398;SDS011;8817;48.170;8.592;2023-06-19T03:10:40;6.65;;;6.05;;
17398;SDS011;8817;48.170;8.592;2023-06-19T03:13:07;6.57;;;6.15;;
17398;SDS011;8817;48.170;8.592;2023-06-19T03:15:34;6.47;;;6.07;;
17398;SDS011;8817;48.170;8.592;2023-06-19T03:18:01;6.82;;;6.45;;
17398;SDS011;8817;48.170;8.592;2023-06-19T03:20:31;6.68;;;6.28;;
17398;SDS011;8817;48.170;8.592;2023-06-19T03:22:59;6.60;;;6.20;;
17398;SDS011;8817;48.170;8.592;2023-06-19T03:25:29;6.57;;;6.20;;
17398;SDS011;8817;48.170;8.592;2023-06-19T03:28:00;6.93;;;6.40;;
17398;SDS011;8817;48.170;8.592;2023-06-19T03:30:27;7.03;;;6.43;;
17398;SDS011;8817;48.170;8.592;2023-06-19T03:32:53;7.00;;;6.50;;
17398;SDS011;8817;48.170;8.592;2023-06-19T03:35:20;7.20;;;6.70;;
17398;SDS011;8817;48.170;8.592;2023-06-19T03:37:47;6.85;;;6.35;;
17398;SDS011;8817;48.170;8.592;2023-06-19T03:40:15;7.38;;;6.70;;
17398;SDS011;8817;48.170;8.592;2023-06-19T03:42:42;6.90;;;6.40;;
17398;SDS011;8817;48.170;8.592;2023-06-19T03:45:09;7.63;;;7.03;;
17398;SDS011;8817;48.170;8.592;2023-06-19T03:47:36;7.45;;;6.82;;
17398;SDS011;8817;48.170;8.592;2023-06-19T03:50:04;7.15;;;6.50;;
17398;SDS011;8817;48.170;8.592;2023-06-19T03:52:34;7.43;;;6.78;;
17398;SDS011;8817;48.170;8.592;2023-06-19T03:55:01;7.80;;;7.00;;
17398;SDS011;8817;48.170;8.592;2023-06-19T03:57:30;7.40;;;6.90;;
17398;SDS011;8817;48.170;8.592;2023-06-19T03:59:57;7.18;;;6.68;;
17398;SDS011;8817;48.170;8.592;2023-06-19T04:02:24;7.20;;;6.70;;
17398;SDS011;8817;48.170;8.592;2023-06-19T04:04:51;7.05;;;6.65;;
17398;SDS011;8817;48.170;8.592;2023-06-19T04:07:18;7.32;;;6.72;;
17398;SDS011;8817;48.170;8.592;2023-06-19T04:09:44;7.00;;;6.50;;
17398;SDS011;8817;48.170;8.592;2023-06-19T04:12:11;7.47;;;6.88;;
17398;SDS011;8817;48.170;8.592;2023-06-19T04:14:40;8.93;;;6.60;;
17398;SDS011;8817;48.170;8.592;2023-06-19T04:17:06;6.90;;;6.40;;
17398;SDS011;8817;48.170;8.592;2023-06-19T04:19:33;7.20;;;6.70;;
17398;SDS011;8817;48.170;8.592;2023-06-19T04:22:00;7.30;;;6.80;;
17398;SDS011;8817;48.170;8.592;2023-06-19T04:24:27;6.43;;;6.03;;
17398;SDS011;8817;48.170;8.592;2023-06-19T04:26:54;6.72;;;6.32;;
17398;SDS011;8817;48.170;8.592;2023-06-19T04:29:21;6.90;;;6.50;;
17398;SDS011;8817;48.170;8.592;2023-06-19T04:31:49;7.35;;;6.85;;
17398;SDS011;8817;48.170;8.592;2023-06-19T04:34:16;6.65;;;6.28;;
17398;SDS011;8817;48.170;8.592;2023-06-19T04:36:47;7.00;;;6.50;;
17398;SDS011;8817;48.170;8.592;2023-06-19T04:39:14;6.78;;;6.38;;
17398;SDS011;8817;48.170;8.592;2023-06-19T04:41:42;7.72;;;7.03;;
17398;SDS011;8817;48.170;8.592;2023-06-19T04:44:09;7.18;;;6.68;;
17398;SDS011;8817;48.170;8.592;2023-06-19T04:46:37;7.25;;;6.75;;
17398;SDS011;8817;48.170;8.592;2023-06-19T04:49:06;7.18;;;6.68;;
17398;SDS011;8817;48.170;8.592;2023-06-19T04:51:34;7.22;;;6.78;;
17398;SDS011;8817;48.170;8.592;2023-06-19T04:54:01;7.32;;;6.82;;
17398;SDS011;8817;48.170;8.592;2023-06-19T04:56:28;7.40;;;6.88;;
17398;SDS011;8817;48.170;8.592;2023-06-19T04:58:55;8.13;;;6.72;;
17398;SDS011;8817;48.170;8.592;2023-06-19T05:01:25;7.43;;;6.93;;
17398;SDS011;8817;48.170;8.592;2023-06-19T05:03:54;7.35;;;6.95;;
17398;SDS011;8817;48.170;8.592;2023-06-19T05:06:22;7.40;;;6.90;;
17398;SDS011;8817;48.170;8.592;2023-06-19T05:08:49;7.28;;;6.80;;
17398;SDS011;8817;48.170;8.592;2023-06-19T05:11:17;7.60;;;6.90;;
17398;SDS011;8817;48.170;8.592;2023-06-19T05:13:44;7.47;;;6.97;;
17398;SDS011;8817;48.170;8.592;2023-06-19T05:16:11;7.70;;;7.10;;
17398;SDS011;8817;48.170;8.592;2023-06-19T05:18:41;7.55;;;7.05;;
17398;SDS011;8817;48.170;8.592;2023-06-19T05:21:09;8.00;;;7.40;;
17398;SDS011;8817;48.170;8.592;2023-06-19T05:23:37;7.47;;;6.97;;
17398;SDS011;8817;48.170;8.592;2023-06-19T05:26:04;7.68;;;7.18;;
17398;SDS011;8817;48.170;8.592;2023-06-19T05:28:31;7.43;;;6.93;;
17398;SDS011;8817;48.170;8.592;2023-06-19T05:30:58;7.70;;;7.13;;
17398;SDS011;8817;48.170;8.592;2023-06-19T05:33:25;7.63;;;7.13;;
17398;SDS011;8817;48.170;8.592;2023-06-19T05:35:52;7.65;;;7.15;;
17398;SDS011;8817;48.170;8.592;2023-06-19T05:38:19;7.72;;;7.20;;
17398;SDS011;8817;48.170;8.592;2023-06-19T05:40:49;7.45;;;6.95;;
17398;SDS011;8817;48.170;8.592;2023-06-19T05:43:16;7.45;;;6.95;;
17398;SDS011;8817;48.170;8.592;2023-06-19T05:45:44;7.55;;;7.05;;
17398;SDS011;8817;48.170;8.592;2023-06-19T05:48:11;7.78;;;7.18;;
17398;SDS011;8817;48.170;8.592;2023-06-19T05:50:38;8.00;;;7.40;;
17398;SDS011;8817;48.170;8.592;2023-06-19T05:53:05;7.68;;;7.10;;
17398;SDS011;8817;48.170;8.592;2023-06-19T05:55:32;7.80;;;7.30;;
17398;SDS011;8817;48.170;8.592;2023-06-19T05:58:01;7.82;;;7.22;;
17398;SDS011;8817;48.170;8.592;2023-06-19T06:00:29;8.07;;;7.47;;
17398;SDS011;8817;48.170;8.592;2023-06-19T06:02:57;8.10;;;7.47;;
17398;SDS011;8817;48.170;8.592;2023-06-19T06:05:25;7.65;;;7.15;;
17398;SDS011;8817;48.170;8.592;2023-06-19T06:07:52;8.02;;;7.40;;
17398;SDS011;8817;48.170;8.592;2023-06-19T06:10:19;7.70;;;7.20;;
17398;SDS011;8817;48.170;8.592;2023-06-19T06:12:46;8.02;;;7.47;;
17398;SDS011;8817;48.170;8.592;2023-06-19T06:15:15;7.50;;;7.05;;
17398;SDS011;8817;48.170;8.592;2023-06-19T06:17:42;8.18;;;7.57;;
17398;SDS011;8817;48.170;8.592;2023-06-19T06:20:09;8.02;;;7.45;;
17398;SDS011;8817;48.170;8.592;2023-06-19T06:22:37;8.23;;;7.50;;
17398;SDS011;8817;48.170;8.592;2023-06-19T06:25:04;7.93;;;7.30;;
17398;SDS011;8817;48.170;8.592;2023-06-19T06:27:32;7.82;;;7.22;;
17398;SDS011;8817;48.170;8.592;2023-06-19T06:29:58;7.97;;;7.47;;
17398;SDS011;8817;48.170;8.592;2023-06-19T06:32:27;8.30;;;7.50;;
17398;SDS011;8817;48.170;8.592;2023-06-19T06:34:56;8.80;;;8.10;;
17398;SDS011;8817;48.170;8.592;2023-06-19T06:37:23;8.70;;;8.00;;
17398;SDS011;8817;48.170;8.592;2023-06-19T06:39:50;8.65;;;7.55;;
17398;SDS011;8817;48.170;8.592;2023-06-19T06:42:17;7.88;;;7.35;;
17398;SDS011;8817;48.170;8.592;2023-06-19T06:44:45;8.73;;;7.93;;
17398;SDS011;8817;48.170;8.592;2023-06-19T06:47:12;7.53;;;6.93;;
17398;SDS011;8817;48.170;8.592;2023-06-19T06:49:40;8.00;;;7.40;;
17398;SDS011;8817;48.170;8.592;2023-06-19T06:52:07;8.25;;;7.63;;
17398;SDS011;8817;48.170;8.592;2023-06-19T06:54:34;8.75;;;7.97;;
17398;SDS011;8817;48.170;8.592;2023-06-19T06:57:01;8.35;;;7.65;;
17398;SDS011;8817;48.170;8.592;2023-06-19T06:59:30;8.85;;;8.15;;
17398;SDS011;8817;48.170;8.592;2023-06-19T07:01:57;8.75;;;8.05;;
17398;SDS011;8817;48.170;8.592;2023-06-19T07:04:24;9.23;;;8.43;;
17398;SDS011;8817;48.170;8.592;2023-06-19T07:06:52;9.32;;;8.10;;
17398;SDS011;8817;48.170;8.592;2023-06-19T07:09:19;8.95;;;8.25;;
17398;SDS011;8817;48.170;8.592;2023-06-19T07:11:47;8.43;;;7.72;;
17398;SDS011;8817;48.170;8.592;2023-06-19T07:14:14;9.30;;;8.50;;
17398;SDS011;8817;48.170;8.592;2023-06-19T07:16:43;8.70;;;8.00;;
17398;SDS011;8817;48.170;8.592;2023-06-19T07:19:10;8.60;;;7.90;;
17398;SDS011;8817;48.170;8.592;2023-06-19T07:21:37;8.38;;;7.78;;
17398;SDS011;8817;48.170;8.592;2023-06-19T07:24:06;11.68;;;7.97;;
17398;SDS011;8817;48.170;8.592;2023-06-19T07:26:33;8.63;;;7.85;;
17398;SDS011;8817;48.170;8.592;2023-06-19T07:29:00;8.32;;;7.72;;
17398;SDS011;8817;48.170;8.592;2023-06-19T07:31:27;10.52;;;8.00;;
17398;SDS011;8817;48.170;8.592;2023-06-19T07:33:54;10.25;;;8.75;;
17398;SDS011;8817;48.170;8.592;2023-06-19T07:36:21;8.55;;;7.93;;
17398;SDS011;8817;48.170;8.592;2023-06-19T07:38:48;8.70;;;7.88;;
17398;SDS011;8817;48.170;8.592;2023-06-19T07:41:16;9.98;;;8.50;;
17398;SDS011;8817;48.170;8.592;2023-06-19T07:43:43;9.02;;;8.23;;
17398;SDS011;8817;48.170;8.592;2023-06-19T07:46:10;9.38;;;8.30;;
17398;SDS011;8817;48.170;8.592;2023-06-19T07:48:37;9.07;;;8.20;;
17398;SDS011;8817;48.170;8.592;2023-06-19T07:51:04;9.27;;;8.48;;
17398;SDS011;8817;48.170;8.592;2023-06-19T07:53:30;8.73;;;8.02;;
17398;SDS011;8817;48.170;8.592;2023-06-19T07:55:57;8.98;;;8.27;;
17398;SDS011;8817;48.170;8.592;2023-06-19T07:58:26;8.70;;;7.90;;
17398;SDS011;8817;48.170;8.592;2023-06-19T08:00:52;9.88;;;8.20;;
17398;SDS011;8817;48.170;8.592;2023-06-19T08:03:19;8.75;;;8.05;;
17398;SDS011;8817;48.170;8.592;2023-06-19T08:05:46;8.63;;;7.93;;
17398;SDS011;8817;48.170;8.592;2023-06-19T08:08:13;9.00;;;8.00;;
17398;SDS011;8817;48.170;8.592;2023-06-19T08:10:40;9.02;;;8.32;;
17398;SDS011;8817;48.170;8.592;2023-06-19T08:13:07;8.65;;;7.93;;
17398;SDS011;8817;48.170;8.592;2023-06-19T08:15:37;13.95;;;8.70;;
17398;SDS011;8817;48.170;8.592;2023-06-19T08:18:04;9.05;;;8.35;;
17398;SDS011;8817;48.170;8.592;2023-06-19T08:20:31;8.77;;;7.85;;
17398;SDS011;8817;48.170;8.592;2023-06-19T08:22:58;9.18;;;8.27;;
17398;SDS011;8817;48.170;8.592;2023-06-19T08:25:25;8.50;;;7.80;;
17398;SDS011;8817;48.170;8.592;2023-06-19T08:27:52;8.63;;;7.90;;
17398;SDS011;8817;48.170;8.592;2023-06-19T08:30:19;9.18;;;8.27;;
17398;SDS011;8817;48.170;8.592;2023-06-19T08:32:47;9.93;;;8.23;;
17398;SDS011;8817;48.170;8.592;2023-06-19T08:35:14;8.30;;;7.70;;
17398;SDS011;8817;48.170;8.592;2023-06-19T08:37:41;8.57;;;7.88;;
17398;SDS011;8817;48.170;8.592;2023-06-19T08:40:08;8.90;;;8.05;;
17398;SDS011;8817;48.170;8.592;2023-06-19T08:42:36;9.20;;;8.07;;
17398;SDS011;8817;48.170;8.592;2023-06-19T08:45:05;8.55;;;7.85;;
17398;SDS011;8817;48.170;8.592;2023-06-19T08:47:33;9.10;;;8.30;;
17398;SDS011;8817;48.170;8.592;2023-06-19T08:50:01;8.95;;;8.25;;
17398;SDS011;8817;48.170;8.592;2023-06-19T08:52:28;8.73;;;8.02;;
17398;SDS011;8817;48.170;8.592;2023-06-19T08:54:55;8.70;;;8.00;;
17398;SDS011;8817;48.170;8.592;2023-06-19T08:57:32;9.02;;;8.20;;
17398;SDS011;8817;48.170;8.592;2023-06-19T08:59:59;8.85;;;8.05;;
17398;SDS011;8817;48.170;8.592;2023-06-19T09:02:36;8.73;;;8.02;;
17398;SDS011;8817;48.170;8.592;2023-06-19T09:05:13;8.65;;;7.95;;
17398;SDS011;8817;48.170;8.592;2023-06-19T09:07:40;9.02;;;8.23;;
17398;SDS011;8817;48.170;8.592;2023-06-19T09:10:11;9.07;;;8.38;;
17398;SDS011;8817;48.170;8.592;2023-06-19T09:12:41;8.70;;;7.90;;
17398;SDS011;8817;48.170;8.592;2023-06-19T09:15:11;8.60;;;7.90;;
17398;SDS011;8817;48.170;8.592;2023-06-19T09:17:38;8.70;;;8.00;;
17398;SDS011;8817;48.170;8.592;2023-06-19T09:20:06;8.30;;;7.70;;
17398;SDS011;8817;48.170;8.592;2023-06-19T09:22:38;8.35;;;7.65;;
17398;SDS011;8817;48.170;8.592;2023-06-19T09:25:06;8.60;;;7.88;;
17398;SDS011;8817;48.170;8.592;2023-06-19T09:27:35;8.57;;;7.82;;
17398;SDS011;8817;48.170;8.592;2023-06-19T09:30:02;8.60;;;7.90;;
17398;SDS011;8817;48.170;8.592;2023-06-19T09:32:31;8.65;;;7.85;;
17398;SDS011;8817;48.170;8.592;2023-06-19T09:34:58;8.80;;;8.02;;
17398;SDS011;8817;48.170;8.592;2023-06-19T09:37:25;10.18;;;8.35;;
17398;SDS011;8817;48.170;8.592;2023-06-19T09:39:55;8.48;;;7.80;;
17398;SDS011;8817;48.170;8.592;2023-06-19T09:42:26;8.90;;;8.00;;
17398;SDS011;8817;48.170;8.592;2023-06-19T09:44:55;8.45;;;7.75;;
17398;SDS011;8817;48.170;8.592;2023-06-19T09:47:27;8.13;;;7.53;;
17398;SDS011;8817;48.170;8.592;2023-06-19T09:49:57;9.13;;;8.32;;
17398;SDS011;8817;48.170;8.592;2023-06-19T09:52:25;8.23;;;7.63;;
17398;SDS011;8817;48.170;8.592;2023-06-19T09:54:53;8.82;;;8.13;;
17398;SDS011;8817;48.170;8.592;2023-06-19T09:57:22;8.60;;;8.00;;
17398;SDS011;8817;48.170;8.592;2023-06-19T09:59:50;8.70;;;7.85;;
17398;SDS011;8817;48.170;8.592;2023-06-19T10:02:21;8.57;;;7.78;;
17398;SDS011;8817;48.170;8.592;2023-06-19T10:04:50;8.85;;;8.15;;
17398;SDS011;8817;48.170;8.592;2023-06-19T10:07:18;8.68;;;7.88;;
17398;SDS011;8817;48.170;8.592;2023-06-19T10:12:37;8.73;;;7.97;;
17398;SDS011;8817;48.170;8.592;2023-06-19T10:15:13;8.48;;;7.88;;
17398;SDS011;8817;48.170;8.592;2023-06-19T10:17:43;8.68;;;7.97;;
17398;SDS011;8817;48.170;8.592;2023-06-19T10:20:19;8.82;;;8.00;;
17398;SDS011;8817;48.170;8.592;2023-06-19T10:22:57;8.65;;;7.95;;
17398;SDS011;8817;48.170;8.592;2023-06-19T10:25:31;8.60;;;7.90;;
17398;SDS011;8817;48.170;8.592;2023-06-19T10:27:59;8.32;;;7.65;;
17398;SDS011;8817;48.170;8.592;2023-06-19T10:30:27;8.32;;;7.63;;
17398;SDS011;8817;48.170;8.592;2023-06-19T10:32:55;8.40;;;7.70;;
17398;SDS011;8817;48.170;8.592;2023-06-19T10:35:22;7.60;;;7.10;;
17398;SDS011;8817;48.170;8.592;2023-06-19T10:37:50;7.95;;;7.45;;
17398;SDS011;8817;48.170;8.592;2023-06-19T10:40:17;8.23;;;7.63;;
17398;SDS011;8817;48.170;8.592;2023-06-19T10:42:45;7.82;;;7.32;;
17398;SDS011;8817;48.170;8.592;2023-06-19T10:45:13;7.80;;;7.30;;
17398;SDS011;8817;48.170;8.592;2023-06-19T10:47:42;7.85;;;7.25;;
17398;SDS011;8817;48.170;8.592;2023-06-19T10:50:10;7.70;;;7.15;;
17398;SDS011;8817;48.170;8.592;2023-06-19T10:52:41;7.95;;;7.25;;
17398;SDS011;8817;48.170;8.592;2023-06-19T10:55:09;8.20;;;7.60;;
17398;SDS011;8817;48.170;8.592;2023-06-19T10:57:37;7.95;;;7.43;;
17398;SDS011;8817;48.170;8.592;2023-06-19T11:00:07;8.43;;;7.72;;
17398;SDS011;8817;48.170;8.592;2023-06-19T11:02:38;8.30;;;7.65;;
17398;SDS011;8817;48.170;8.592;2023-06-19T11:05:08;7.93;;;7.40;;
17398;SDS011;8817;48.170;8.592;2023-06-19T11:07:36;8.15;;;7.35;;
17398;SDS011;8817;48.170;8.592;2023-06-19T11:10:03;8.00;;;7.40;;
17398;SDS011;8817;48.170;8.592;2023-06-19T11:12:31;8.32;;;7.63;;
17398;SDS011;8817;48.170;8.592;2023-06-19T11:15:02;7.95;;;7.30;;
17398;SDS011;8817;48.170;8.592;2023-06-19T11:17:31;7.75;;;7.25;;
17398;SDS011;8817;48.170;8.592;2023-06-19T11:19:58;8.00;;;7.40;;
17398;SDS011;8817;48.170;8.592;2023-06-19T11:22:35;7.88;;;7.18;;
17398;SDS011;8817;48.170;8.592;2023-06-19T11:25:04;8.27;;;7.68;;
17398;SDS011;8817;48.170;8.592;2023-06-19T11:27:32;8.27;;;7.68;;
17398;SDS011;8817;48.170;8.592;2023-06-19T11:30:00;7.88;;;7.28;;
17398;SDS011;8817;48.170;8.592;2023-06-19T11:32:30;8.02;;;7.32;;
17398;SDS011;8817;48.170;8.592;2023-06-19T11:35:04;7.63;;;7.13;;
17398;SDS011;8817;48.170;8.592;2023-06-19T11:37:33;8.40;;;7.80;;
17398;SDS011;8817;48.170;8.592;2023-06-19T11:40:01;7.50;;;7.00;;
17398;SDS011;8817;48.170;8.592;2023-06-19T11:42:43;7.75;;;7.25;;
17398;SDS011;8817;48.170;8.592;2023-06-19T11:45:11;7.82;;;7.22;;
17398;SDS011;8817;48.170;8.592;2023-06-19T11:47:39;8.20;;;7.35;;
17398;SDS011;8817;48.170;8.592;2023-06-19T11:50:07;7.68;;;7.18;;
17398;SDS011;8817;48.170;8.592;2023-06-19T11:52:34;8.18;;;7.57;;
17398;SDS011;8817;48.170;8.592;2023-06-19T11:55:01;8.18;;;7.50;;
17398;SDS011;8817;48.170;8.592;2023-06-19T11:57:28;8.13;;;7.53;;
17398;SDS011;8817;48.170;8.592;2023-06-19T11:59:55;8.30;;;7.70;;
17398;SDS011;8817;48.170;8.592;2023-06-19T12:02:22;8.00;;;7.50;;
17398;SDS011;8817;48.170;8.592;2023-06-19T12:04:50;8.57;;;7.68;;
17398;SDS011;8817;48.170;8.592;2023-06-19T12:07:17;8.30;;;7.70;;
17398;SDS011;8817;48.170;8.592;2023-06-19T12:09:45;7.78;;;7.28;;
17398;SDS011;8817;48.170;8.592;2023-06-19T12:12:11;8.40;;;7.75;;
17398;SDS011;8817;48.170;8.592;2023-06-19T12:14:38;8.13;;;7.63;;
17398;SDS011;8817;48.170;8.592;2023-06-19T12:17:05;8.60;;;7.90;;
17398;SDS011;8817;48.170;8.592;2023-06-19T12:19:32;8.23;;;7.53;;
17398;SDS011;8817;48.170;8.592;2023-06-19T12:22:00;8.18;;;7.57;;
17398;SDS011;8817;48.170;8.592;2023-06-19T12:24:27;8.38;;;7.78;;
17398;SDS011;8817;48.170;8.592;2023-06-19T12:26:54;8.02;;;7.50;;
17398;SDS011;8817;48.170;8.592;2023-06-19T12:29:21;8.40;;;7.80;;
17398;SDS011;8817;48.170;8.592;2023-06-19T12:31:48;8.10;;;7.50;;
17398;SDS011;8817;48.170;8.592;2023-06-19T12:34:15;8.10;;;7.60;;
17398;SDS011;8817;48.170;8.592;2023-06-19T12:36:43;8.20;;;7.68;;
17398;SDS011;8817;48.170;8.592;2023-06-19T12:39:11;8.43;;;7.72;;
17398;SDS011;8817;48.170;8.592;2023-06-19T12:41:39;8.40;;;7.60;;
17398;SDS011;8817;48.170;8.592;2023-06-19T12:44:06;8.20;;;7.60;;
17398;SDS011;8817;48.170;8.592;2023-06-19T12:46:33;8.63;;;7.90;;
17398;SDS011;8817;48.170;8.592;2023-06-19T12:49:00;8.13;;;7.53;;
17398;SDS011;8817;48.170;8.592;2023-06-19T12:51:27;8.55;;;7.95;;
17398;SDS011;8817;48.170;8.592;2023-06-19T12:53:54;8.23;;;7.63;;
17398;SDS011;8817;48.170;8.592;2023-06-19T12:56:22;8.32;;;7.72;;
17398;SDS011;8817;48.170;8.592;2023-06-19T12:58:49;8.45;;;7.85;;
17398;SDS011;8817;48.170;8.592;2023-06-19T13:01:16;8.65;;;8.05;;
17398;SDS011;8817;48.170;8.592;2023-06-19T13:03:43;8.40;;;7.80;;
17398;SDS011;8817;48.170;8.592;2023-06-19T13:06:09;8.23;;;7.63;;
17398;SDS011;8817;48.170;8.592;2023-06-19T13:08:36;8.23;;;7.63;;
17398;SDS011;8817;48.170;8.592;2023-06-19T13:11:03;8.73;;;7.97;;
17398;SDS011;8817;48.170;8.592;2023-06-19T13:13:31;8.48;;;7.88;;
17398;SDS011;8817;48.170;8.592;2023-06-19T13:15:58;8.35;;;7.75;;
17398;SDS011;8817;48.170;8.592;2023-06-19T13:18:25;8.38;;;7.78;;
17398;SDS011;8817;48.170;8.592;2023-06-19T13:20:52;8.80;;;8.00;;
17398;SDS011;8817;48.170;8.592;2023-06-19T13:23:19;8.50;;;7.90;;
17398;SDS011;8817;48.170;8.592;2023-06-19T13:25:46;8.32;;;7.57;;
17398;SDS011;8817;48.170;8.592;2023-06-19T13:28:13;8.23;;;7.63;;
17398;SDS011;8817;48.170;8.592;2023-06-19T13:30:41;8.60;;;7.78;;
17398;SDS011;8817;48.170;8.592;2023-06-19T13:33:08;8.48;;;7.80;;
17398;SDS011;8817;48.170;8.592;2023-06-19T13:35:36;8.45;;;7.90;;
17398;SDS011;8817;48.170;8.592;2023-06-19T13:38:02;7.97;;;7.38;;
17398;SDS011;8817;48.170;8.592;2023-06-19T13:40:29;7.63;;;7.13;;
17398;SDS011;8817;48.170;8.592;2023-06-19T13:42:56;8.95;;;8.15;;
17398;SDS011;8817;48.170;8.592;2023-06-19T13:45:24;8.18;;;7.47;;
17398;SDS011;8817;48.170;8.592;2023-06-19T13:47:52;8.15;;;7.55;;
17398;SDS011;8817;48.170;8.592;2023-06-19T13:50:19;7.95;;;7.43;;
17398;SDS011;8817;48.170;8.592;2023-06-19T13:52:46;8.20;;;7.50;;
17398;SDS011;8817;48.170;8.592;2023-06-19T13:55:13;8.23;;;7.63;;
17398;SDS011;8817;48.170;8.592;2023-06-19T13:57:40;8.35;;;7.70;;
17398;SDS011;8817;48.170;8.592;2023-06-19T14:00:08;8.50;;;7.80;;
17398;SDS011;8817;48.170;8.592;2023-06-19T14:02:36;8.27;;;7.63;;
17398;SDS011;8817;48.170;8.592;2023-06-19T14:05:05;8.88;;;7.97;;
17398;SDS011;8817;48.170;8.592;2023-06-19T14:07:32;8.73;;;7.90;;
17398;SDS011;8817;48.170;8.592;2023-06-19T14:10:00;9.82;;;8.02;;
17398;SDS011;8817;48.170;8.592;2023-06-19T14:12:29;11.85;;;8.43;;
17398;SDS011;8817;48.170;8.592;2023-06-19T14:14:56;13.98;;;8.63;;
17398;SDS011;8817;48.170;8.592;2023-06-19T14:17:23;11.00;;;8.75;;
17398;SDS011;8817;48.170;8.592;2023-06-19T14:19:50;12.00;;;8.13;;
17398;SDS011;8817;48.170;8.592;2023-06-19T14:22:18;9.32;;;8.43;;
17398;SDS011;8817;48.170;8.592;2023-06-19T14:24:45;9.45;;;8.55;;
17398;SDS011;8817;48.170;8.592;2023-06-19T14:27:12;9.13;;;8.32;;
17398;SDS011;8817;48.170;8.592;2023-06-19T14:29:39;8.98;;;8.18;;
17398;SDS011;8817;48.170;8.592;2023-06-19T14:32:06;9.65;;;8.43;;
17398;SDS011;8817;48.170;8.592;2023-06-19T14:34:33;9.25;;;8.45;;
17398;SDS011;8817;48.170;8.592;2023-06-19T14:37:00;9.50;;;8.70;;
17398;SDS011;8817;48.170;8.592;2023-06-19T14:39:28;9.63;;;8.82;;
17398;SDS011;8817;48.170;8.592;2023-06-19T14:41:55;8.82;;;8.13;;
17398;SDS011;8817;48.170;8.592;2023-06-19T14:44:21;9.55;;;8.65;;
17398;SDS011;8817;48.170;8.592;2023-06-19T14:46:48;10.10;;;9.00;;
17398;SDS011;8817;48.170;8.592;2023-06-19T14:49:15;29.27;;;9.18;;
17398;SDS011;8817;48.170;8.592;2023-06-19T14:51:42;9.00;;;8.10;;
17398;SDS011;8817;48.170;8.592;2023-06-19T14:54:09;22.27;;;8.52;;
17398;SDS011;8817;48.170;8.592;2023-06-19T14:56:37;8.70;;;8.00;;
17398;SDS011;8817;48.170;8.592;2023-06-19T14:59:04;8.52;;;7.72;;
17398;SDS011;8817;48.170;8.592;2023-06-19T15:01:31;8.40;;;7.70;;
17398;SDS011;8817;48.170;8.592;2023-06-19T15:03:58;8.27;;;7.30;;
17398;SDS011;8817;48.170;8.592;2023-06-19T15:06:25;8.75;;;7.95;;